Brinnon, Washington
Current Conditions -  °F | °C
As of 7:15 AM on Friday 31 Oct 2014 (Local Time) from KPWT Reporting Station
Overcast Overcast  
Wind Chill: 50°   Ceiling: 3700
Heat Index: 50°   Visibility: 10mi
Dew Point: 50°   Wind: 6mph
Humidity: 100%   Direction: 210°SSW
Pressure: 29.73"   Gusts: NA
Location:  47.68°N, 122.9°W
Report Text: KPWT 311415Z AUTO 21005KT 10SM SCT004 SCT009 OVC037 10/10 A2973 RMK AO1 P0002
Loading
Personal Weather Stations






























Interactive Weather Map
Tropical Storm Tracking
New forecast layout! Learn more

10-Day Weather Forecast

Advertisements
Track Severe Weather on mobile